Time,TemperatureF,DewpointF,PressureIn,WindDirection,WindDirectionDegrees,WindSpeedMPH,WindSpeedGustMPH,Humidity,HourlyPrecipIn,Conditions,Clouds,dailyrainin,SolarRadiationWatts/m^2,SoftwareType,DateUTC
2013-05-18 00:01:00,50.8,48.0,30.21,South,186,0.0,0.0,90,0.00,,,0.00,0,weatherlink.com 1.10,2013-05-18 04:01:00,
2013-05-18 00:16:00,50.3,48.0,30.22,South,186,0.0,0.0,91,0.00,,,0.00,0,weatherlink.com 1.10,2013-05-18 04:16:00,
2013-05-18 00:31:00,49.9,47.0,30.22,South,186,0.0,0.0,91,0.00,,,0.00,0,weatherlink.com 1.10,2013-05-18 04:31:00,
2013-05-18 00:46:00,49.3,47.0,30.22,South,186,0.0,0.0,92,0.00,,,0.00,0,weatherlink.com 1.10,2013-05-18 04:46:00,
2013-05-18 01:02:00,48.8,47.0,30.22,South,186,0.0,0.0,93,0.00,,,0.00,0,weatherlink.com 1.10,2013-05-18 05:02:00,
2013-05-18 01:17:00,48.5,47.0,30.22,South,186,0.0,0.0,93,0.00,,,0.00,0,weatherlink.com 1.10,2013-05-18 05:17:00,
2013-05-18 01:32:00,48.0,46.0,30.23,South,186,0.0,0.0,93,0.00,,,0.00,0,weatherlink.com 1.10,2013-05-18 05:32:00,
2013-05-18 01:47:00,47.7,46.0,30.22,South,186,0.0,0.0,94,0.00,,,0.00,0,weatherlink.com 1.10,2013-05-18 05:47:00,
2013-05-18 02:02:00,47.6,46.0,30.22,South,186,0.0,0.0,94,0.00,,,0.00,0,weatherlink.com 1.10,2013-05-18 06:02:00,
2013-05-18 02:17:00,46.8,45.0,30.22,South,186,0.0,1.0,94,0.00,,,0.00,0,weatherlink.com 1.10,2013-05-18 06:17:00,
2013-05-18 02:32:00,46.6,45.0,30.22,South,186,0.0,0.0,94,0.00,,,0.00,0,weatherlink.com 1.10,2013-05-18 06:32:00,
2013-05-18 02:47:00,46.7,45.0,30.22,South,186,0.0,0.0,95,0.00,,,0.00,0,weatherlink.com 1.10,2013-05-18 06:47:00,
2013-05-18 03:02:00,46.1,45.0,30.22,South,186,0.0,0.0,95,0.00,,,0.00,0,weatherlink.com 1.10,2013-05-18 07:02:00,
2013-05-18 03:17:00,46.0,45.0,30.23,South,186,0.0,1.0,95,0.00,,,0.00,0,weatherlink.com 1.10,2013-05-18 07:17:00,
2013-05-18 03:32:00,45.7,44.0,30.23,South,186,0.0,0.0,95,0.00,,,0.00,0,weatherlink.com 1.10,2013-05-18 07:32:00,
2013-05-18 03:47:00,45.3,44.0,30.23,South,186,0.0,0.0,95,0.00,,,0.00,0,weatherlink.com 1.10,2013-05-18 07:47:00,
2013-05-18 04:02:00,45.3,44.0,30.24,South,186,0.0,1.0,95,0.00,,,0.00,0,weatherlink.com 1.10,2013-05-18 08:02:00,
2013-05-18 04:17:00,44.9,44.0,30.25,South,186,0.0,0.0,95,0.00,,,0.00,0,weatherlink.com 1.10,2013-05-18 08:17:00,
2013-05-18 04:32:00,44.6,43.0,30.25,South,186,0.0,1.0,95,0.00,,,0.00,0,weatherlink.com 1.10,2013-05-18 08:32:00,
2013-05-18 04:48:00,44.2,43.0,30.26,South,186,0.0,0.0,95,0.00,,,0.00,0,weatherlink.com 1.10,2013-05-18 08:48:00,
2013-05-18 05:03:00,43.7,42.0,30.25,South,186,0.0,0.0,95,0.00,,,0.00,0,weatherlink.com 1.10,2013-05-18 09:03:00,
2013-05-18 05:18:00,43.7,42.0,30.26,South,186,0.0,0.0,95,0.00,,,0.00,0,weatherlink.com 1.10,2013-05-18 09:18:00,
2013-05-18 05:33:00,43.6,42.0,30.26,South,186,0.0,0.0,95,0.00,,,0.00,7,weatherlink.com 1.10,2013-05-18 09:33:00,
2013-05-18 05:47:00,43.4,42.0,30.26,South,186,0.0,0.0,96,0.00,,,0.00,14,weatherlink.com 1.10,2013-05-18 09:47:00,
2013-05-18 06:02:00,43.5,43.0,30.27,South,186,0.0,0.0,96,0.00,,,0.00,21,weatherlink.com 1.10,2013-05-18 10:02:00,
2013-05-18 06:18:00,43.9,43.0,30.28,South,186,0.0,0.0,96,0.00,,,0.00,28,weatherlink.com 1.10,2013-05-18 10:18:00,
2013-05-18 06:34:00,45.0,44.0,30.29,South,186,0.0,0.0,96,0.00,,,0.00,33,weatherlink.com 1.10,2013-05-18 10:34:00,
2013-05-18 06:49:00,46.3,45.0,30.29,South,186,0.0,0.0,96,0.00,,,0.00,40,weatherlink.com 1.10,2013-05-18 10:49:00,
2013-05-18 07:04:00,47.8,47.0,30.29,South,186,0.0,0.0,96,0.00,,,0.00,42,weatherlink.com 1.10,2013-05-18 11:04:00,
2013-05-18 07:18:00,49.2,48.0,30.30,South,186,0.0,0.0,95,0.00,,,0.00,49,weatherlink.com 1.10,2013-05-18 11:18:00,
2013-05-18 07:34:00,50.8,49.0,30.30,South,186,0.0,1.0,93,0.00,,,0.00,54,weatherlink.com 1.10,2013-05-18 11:34:00,
2013-05-18 07:49:00,52.2,50.0,30.30,South,186,0.0,1.0,92,0.00,,,0.00,63,weatherlink.com 1.10,2013-05-18 11:49:00,
2013-05-18 08:04:00,53.6,51.0,30.30,South,186,0.0,1.0,90,0.00,,,0.00,81,weatherlink.com 1.10,2013-05-18 12:04:00,
2013-05-18 08:19:00,54.9,52.0,30.30,South,186,0.0,1.0,88,0.00,,,0.00,67,weatherlink.com 1.10,2013-05-18 12:19:00,
2013-05-18 08:34:00,55.8,52.0,30.30,South,186,1.0,3.0,86,0.00,,,0.00,127,weatherlink.com 1.10,2013-05-18 12:34:00,
2013-05-18 08:49:00,57.1,52.0,30.31,South,186,0.0,3.0,84,0.00,,,0.00,299,weatherlink.com 1.10,2013-05-18 12:49:00,
2013-05-18 09:05:00,60.7,52.0,30.31,South,189,4.0,7.0,73,0.00,,,0.00,309,weatherlink.com 1.10,2013-05-18 13:05:00,
2013-05-18 09:20:00,61.5,51.0,30.31,South,180,3.0,6.0,68,0.00,,,0.00,283,weatherlink.com 1.10,2013-05-18 13:20:00,
2013-05-18 09:35:00,62.1,52.0,30.31,WSW,255,0.0,4.0,69,0.00,,,0.00,355,weatherlink.com 1.10,2013-05-18 13:35:00,
2013-05-18 09:50:00,63.6,52.0,30.30,SW,215,3.0,7.0,67,0.00,,,0.00,383,weatherlink.com 1.10,2013-05-18 13:50:00,
2013-05-18 10:05:00,64.2,51.0,30.30,SSE,165,3.0,7.0,63,0.00,,,0.00,492,weatherlink.com 1.10,2013-05-18 14:05:00,
2013-05-18 10:20:00,65.9,51.0,30.30,WNW,294,0.0,4.0,58,0.00,,,0.00,793,weatherlink.com 1.10,2013-05-18 14:20:00,
2013-05-18 10:35:00,65.7,49.0,30.31,SSW,203,1.0,6.0,55,0.00,,,0.00,761,weatherlink.com 1.10,2013-05-18 14:35:00,
2013-05-18 10:51:00,66.1,48.0,30.30,SSW,194,2.0,8.0,53,0.00,,,0.00,689,weatherlink.com 1.10,2013-05-18 14:51:00,
2013-05-18 11:07:00,67.6,49.0,30.30,South,186,0.0,5.0,52,0.00,,,0.00,756,weatherlink.com 1.10,2013-05-18 15:07:00,
2013-05-18 11:21:00,68.2,50.0,30.30,South,184,0.0,7.0,52,0.00,,,0.00,807,weatherlink.com 1.10,2013-05-18 15:21:00,
2013-05-18 11:37:00,68.2,49.0,30.30,SSW,210,5.0,7.0,51,0.00,,,0.00,724,weatherlink.com 1.10,2013-05-18 15:37:00,
2013-05-18 11:51:00,67.5,48.0,30.29,SSW,207,0.0,9.0,49,0.00,,,0.00,628,weatherlink.com 1.10,2013-05-18 15:51:00,
2013-05-18 12:07:00,69.1,48.0,30.29,SSE,158,3.0,7.0,48,0.00,,,0.00,703,weatherlink.com 1.10,2013-05-18 16:07:00,
2013-05-18 12:22:00,68.7,48.0,30.29,South,172,1.0,7.0,47,0.00,,,0.00,714,weatherlink.com 1.10,2013-05-18 16:22:00,
2013-05-18 12:37:00,68.4,47.0,30.29,SSE,153,7.0,8.0,46,0.00,,,0.00,721,weatherlink.com 1.10,2013-05-18 16:37:00,
2013-05-18 12:52:00,68.8,47.0,30.28,SSW,196,0.0,7.0,46,0.00,,,0.00,784,weatherlink.com 1.10,2013-05-18 16:52:00,
2013-05-18 13:07:00,68.6,49.0,30.28,South,188,2.0,10.0,50,0.00,,,0.00,768,weatherlink.com 1.10,2013-05-18 17:07:00,
2013-05-18 13:22:00,68.4,48.0,30.28,SE,136,6.0,11.0,49,0.00,,,0.00,740,weatherlink.com 1.10,2013-05-18 17:22:00,
2013-05-18 13:38:00,68.2,50.0,30.28,SSW,206,7.0,9.0,52,0.00,,,0.00,534,weatherlink.com 1.10,2013-05-18 17:38:00,
2013-05-18 13:53:00,68.2,49.0,30.27,SSW,194,2.0,11.0,51,0.00,,,0.00,492,weatherlink.com 1.10,2013-05-18 17:53:00,
2013-05-18 14:07:00,69.2,51.0,30.27,WNW,293,2.0,8.0,53,0.00,,,0.00,404,weatherlink.com 1.10,2013-05-18 18:07:00,
2013-05-18 14:24:00,68.7,51.0,30.27,South,189,3.0,9.0,53,0.00,,,0.00,327,weatherlink.com 1.10,2013-05-18 18:24:00,
2013-05-18 14:38:00,68.4,52.0,30.27,SW,214,0.0,6.0,56,0.00,,,0.00,394,weatherlink.com 1.10,2013-05-18 18:38:00,
2013-05-18 14:54:00,67.5,51.0,30.27,West,264,3.0,9.0,56,0.00,,,0.00,357,weatherlink.com 1.10,2013-05-18 18:54:00,
2013-05-18 15:08:00,67.0,51.0,30.27,South,183,5.0,9.0,57,0.00,,,0.00,297,weatherlink.com 1.10,2013-05-18 19:08:00,
2013-05-18 15:24:00,66.0,49.0,30.27,SSW,198,3.0,10.0,55,0.00,,,0.00,262,weatherlink.com 1.10,2013-05-18 19:24:00,
2013-05-18 15:38:00,65.9,51.0,30.27,South,169,3.0,10.0,60,0.00,,,0.00,237,weatherlink.com 1.10,2013-05-18 19:38:00,
2013-05-18 15:54:00,65.3,52.0,30.27,SW,218,6.0,12.0,62,0.00,,,0.00,216,weatherlink.com 1.10,2013-05-18 19:54:00,
2013-05-18 16:08:00,65.2,52.0,30.27,SSW,212,1.0,6.0,63,0.00,,,0.00,197,weatherlink.com 1.10,2013-05-18 20:08:00,
2013-05-18 16:24:00,64.6,52.0,30.27,South,175,1.0,8.0,64,0.00,,,0.00,181,weatherlink.com 1.10,2013-05-18 20:24:00,
2013-05-18 16:39:00,64.4,53.0,30.27,SSW,200,2.0,10.0,66,0.00,,,0.00,185,weatherlink.com 1.10,2013-05-18 20:39:00,
2013-05-18 16:54:00,64.2,53.0,30.28,SW,221,1.0,8.0,67,0.00,,,0.00,183,weatherlink.com 1.10,2013-05-18 20:54:00,
2013-05-18 17:09:00,63.8,53.0,30.28,West,273,1.0,8.0,68,0.00,,,0.00,169,weatherlink.com 1.10,2013-05-18 21:09:00,
2013-05-18 17:24:00,63.4,53.0,30.28,WSW,248,0.0,7.0,69,0.00,,,0.00,171,weatherlink.com 1.10,2013-05-18 21:24:00,
2013-05-18 17:40:00,63.0,53.0,30.28,SW,220,9.0,9.0,69,0.00,,,0.00,123,weatherlink.com 1.10,2013-05-18 21:40:00,
2013-05-18 17:54:00,62.7,52.0,30.28,SSW,193,3.0,9.0,69,0.00,,,0.00,104,weatherlink.com 1.10,2013-05-18 21:54:00,
2013-05-18 18:10:00,62.5,52.0,30.27,SSW,202,0.0,8.0,69,0.00,,,0.00,79,weatherlink.com 1.10,2013-05-18 22:10:00,
2013-05-18 18:25:00,62.1,52.0,30.28,SSW,196,1.0,9.0,70,0.00,,,0.00,76,weatherlink.com 1.10,2013-05-18 22:25:00,
2013-05-18 18:40:00,61.8,51.0,30.28,SSW,211,2.0,10.0,69,0.00,,,0.00,62,weatherlink.com 1.10,2013-05-18 22:40:00,
2013-05-18 18:55:00,61.5,51.0,30.28,SSW,193,0.0,6.0,68,0.00,,,0.00,62,weatherlink.com 1.10,2013-05-18 22:55:00,
2013-05-18 19:10:00,61.2,50.0,30.29,SSW,212,2.0,9.0,66,0.00,,,0.00,51,weatherlink.com 1.10,2013-05-18 23:10:00,
2013-05-18 19:25:00,60.8,49.0,30.29,SW,232,0.0,9.0,66,0.00,,,0.00,35,weatherlink.com 1.10,2013-05-18 23:25:00,
2013-05-18 19:40:00,60.3,49.0,30.29,West,276,0.0,5.0,67,0.00,,,0.00,16,weatherlink.com 1.10,2013-05-18 23:40:00,
2013-05-18 19:55:00,59.8,50.0,30.30,SW,224,0.0,8.0,69,0.00,,,0.00,9,weatherlink.com 1.10,2013-05-18 23:55:00,
2013-05-18 20:11:00,59.4,50.0,30.30,SSW,192,0.0,6.0,72,0.00,,,0.00,0,weatherlink.com 1.10,2013-05-19 00:11:00,
2013-05-18 20:26:00,58.9,51.0,30.30,WSW,244,0.0,8.0,76,0.00,,,0.00,0,weatherlink.com 1.10,2013-05-19 00:26:00,
2013-05-18 20:42:00,58.4,52.0,30.30,SSW,210,0.0,5.0,79,0.00,,,0.00,0,weatherlink.com 1.10,2013-05-19 00:42:00,
2013-05-18 20:56:00,57.9,52.0,30.30,South,187,0.0,6.0,81,0.00,,,0.00,0,weatherlink.com 1.10,2013-05-19 00:56:00,
2013-05-18 21:11:00,57.5,52.0,30.30,SSW,210,0.0,6.0,82,0.00,,,0.00,0,weatherlink.com 1.10,2013-05-19 01:11:00,
2013-05-18 21:26:00,57.3,52.0,30.30,SSE,161,1.0,6.0,83,0.00,,,0.00,0,weatherlink.com 1.10,2013-05-19 01:26:00,
2013-05-18 21:43:00,56.7,52.0,30.31,South,169,0.0,1.0,84,0.00,,,0.00,0,weatherlink.com 1.10,2013-05-19 01:43:00,
2013-05-18 21:56:00,56.1,52.0,30.31,South,169,0.0,1.0,85,0.00,,,0.00,0,weatherlink.com 1.10,2013-05-19 01:56:00,
2013-05-18 22:12:00,55.4,51.0,30.30,South,169,0.0,1.0,86,0.00,,,0.00,0,weatherlink.com 1.10,2013-05-19 02:12:00,
2013-05-18 22:27:00,55.2,51.0,30.31,South,169,0.0,1.0,86,0.00,,,0.00,0,weatherlink.com 1.10,2013-05-19 02:27:00,
2013-05-18 22:43:00,54.4,50.0,30.30,South,169,0.0,0.0,86,0.00,,,0.00,0,weatherlink.com 1.10,2013-05-19 02:43:00,
2013-05-18 22:57:00,53.3,50.0,30.31,South,169,0.0,0.0,89,0.00,,,0.00,0,weatherlink.com 1.10,2013-05-19 02:57:00,
2013-05-18 23:13:00,52.4,50.0,30.30,South,169,0.0,0.0,90,0.00,,,0.00,0,weatherlink.com 1.10,2013-05-19 03:13:00,
2013-05-18 23:27:00,51.5,49.0,30.30,South,169,0.0,0.0,92,0.00,,,0.00,0,weatherlink.com 1.10,2013-05-19 03:27:00,
2013-05-18 23:42:00,50.8,49.0,30.30,South,169,0.0,0.0,93,0.00,,,0.00,0,weatherlink.com 1.10,2013-05-19 03:42:00,
2013-05-18 23:57:00,50.9,49.0,30.31,South,169,0.0,0.0,93,0.00,,,0.00,0,weatherlink.com 1.10,2013-05-19 03:57:00,